createdAt,value
2019-04-16T00:00:27.418Z,2.98
2019-04-16T00:03:00.383Z,2.95
2019-04-16T00:05:30.428Z,2.82
2019-04-16T00:08:10.049Z,2.88
2019-04-16T00:11:00.149Z,2.99
2019-04-16T00:13:30.206Z,2.95
2019-04-16T00:15:59.063Z,2.87
2019-04-16T00:18:27.460Z,2.84
2019-04-16T00:21:10.651Z,2.68
2019-04-16T00:23:46.616Z,2.79
2019-04-16T00:26:13.994Z,2.74
2019-04-16T00:28:42.391Z,2.79
2019-04-16T00:31:11.856Z,2.73
2019-04-16T00:33:42.864Z,2.73
2019-04-16T00:36:10.390Z,2.43
2019-04-16T00:38:40.799Z,2.60
2019-04-16T00:41:08.881Z,2.60
2019-04-16T00:43:37.288Z,2.68
2019-04-16T00:46:11.459Z,2.68
2019-04-16T00:48:40.621Z,2.71
2019-04-16T00:51:12.743Z,2.72
2019-04-16T00:53:41.148Z,2.56
2019-04-16T00:56:17.969Z,2.58
2019-04-16T00:58:46.369Z,2.57
2019-04-16T01:01:14.744Z,2.59
2019-04-16T01:03:43.127Z,2.53
2019-04-16T01:06:12.597Z,2.32
2019-04-16T01:08:53.612Z,2.40
2019-04-16T01:11:12.110Z,2.40
2019-04-16T01:13:40.512Z,2.40
2019-04-16T01:16:08.897Z,2.46
2019-04-16T01:18:38.855Z,2.46
2019-04-16T01:21:07.491Z,2.41
2019-04-16T01:23:35.878Z,2.38
2019-04-16T01:26:04.339Z,2.41
2019-04-16T01:28:36.757Z,2.34
2019-04-16T01:31:15.627Z,2.41
2019-04-16T01:33:55.462Z,2.41
2019-04-16T01:36:37.435Z,2.16
2019-04-16T01:39:17.367Z,2.38
2019-04-16T01:41:38.729Z,2.31
2019-04-16T01:44:07.148Z,2.17
2019-04-16T01:46:35.531Z,2.16
2019-04-16T01:49:04.008Z,2.19
2019-04-16T01:51:33.475Z,2.09
2019-04-16T01:54:02.914Z,1.95
2019-04-16T01:56:31.326Z,1.95
2019-04-16T01:59:04.556Z,1.93
2019-04-16T02:01:29.841Z,1.90
2019-04-16T02:03:59.233Z,1.84
2019-04-16T02:06:27.659Z,1.63
2019-04-16T02:08:56.045Z,1.72
2019-04-16T02:11:24.440Z,1.73
2019-04-16T02:13:52.836Z,1.65
2019-04-16T02:16:22.340Z,1.71
2019-04-16T02:18:52.358Z,1.71
2019-04-16T02:21:20.774Z,1.65
2019-04-16T02:23:49.159Z,1.51
2019-04-16T02:26:17.543Z,1.72
2019-04-16T02:28:45.956Z,1.70
2019-04-16T02:31:16.222Z,1.71
2019-04-16T02:33:44.459Z,1.57
2019-04-16T02:36:13.046Z,1.64
2019-04-16T02:38:52.320Z,1.69
2019-04-16T02:41:14.329Z,1.55
2019-04-16T02:43:42.741Z,1.55
2019-04-16T02:46:11.360Z,1.65
2019-04-16T02:48:41.884Z,1.56
2019-04-16T02:51:15.253Z,1.70
2019-04-16T02:53:47.973Z,1.57
2019-04-16T02:56:36.551Z,1.54
2019-04-16T02:59:12.271Z,1.64
2019-04-16T03:01:53.731Z,1.72
2019-04-16T03:04:40.161Z,1.72
2019-04-16T03:07:08.559Z,1.76
2019-04-16T03:09:39.861Z,1.87
2019-04-16T03:12:07.061Z,1.79
2019-04-16T03:14:35.467Z,1.68
2019-04-16T03:17:14.734Z,1.84
2019-04-16T03:19:44.741Z,1.95
2019-04-16T03:22:13.135Z,1.95
2019-04-16T03:24:41.525Z,1.89
2019-04-16T03:27:10.084Z,1.89
2019-04-16T03:29:39.616Z,1.83
2019-04-16T03:32:13.129Z,2.00
2019-04-16T03:34:38.116Z,1.85
2019-04-16T03:37:06.503Z,1.89
2019-04-16T03:39:34.886Z,1.86
2019-04-16T03:42:03.554Z,1.70
2019-04-16T03:44:33.469Z,1.77
2019-04-16T03:47:02.260Z,1.83
2019-04-16T03:49:30.668Z,1.92
2019-04-16T03:51:59.066Z,1.92
2019-04-16T03:54:27.447Z,1.95
2019-04-16T03:56:55.922Z,1.91
2019-04-16T03:59:24.390Z,1.96
2019-04-16T04:01:52.769Z,1.88
2019-04-16T04:04:21.183Z,1.93
2019-04-16T04:06:49.568Z,1.88
2019-04-16T04:09:18.984Z,1.84
2019-04-16T04:11:48.084Z,1.84
2019-04-16T04:14:16.469Z,1.99
2019-04-16T04:16:44.861Z,1.95
2019-04-16T04:19:15.121Z,1.90
2019-04-16T04:21:43.397Z,1.98
2019-04-16T04:24:11.776Z,1.83
2019-04-16T04:26:42.029Z,1.88
2019-04-16T04:29:11.751Z,2.02
2019-04-16T04:31:40.154Z,2.07
2019-04-16T04:34:10.742Z,1.98
2019-04-16T04:36:38.674Z,2.05
2019-04-16T04:39:09.943Z,2.04
2019-04-16T04:41:37.210Z,2.05
2019-04-16T04:44:05.618Z,2.14
2019-04-16T04:46:34.001Z,2.14
2019-04-16T04:49:02.420Z,2.34
2019-04-16T04:51:30.800Z,2.28
2019-04-16T04:54:01.663Z,2.32
2019-04-16T04:56:36.209Z,2.41
2019-04-16T04:59:05.268Z,2.46
2019-04-16T05:01:34.464Z,2.46
2019-04-16T05:04:07.232Z,2.61
2019-04-16T05:06:37.283Z,2.55
2019-04-16T05:09:07.208Z,2.67
2019-04-16T05:11:35.616Z,2.83
2019-04-16T05:14:04.039Z,2.83
2019-04-16T05:16:34.442Z,2.76
2019-04-16T05:19:02.563Z,2.92
2019-04-16T05:21:30.945Z,3.03
2019-04-16T05:23:59.335Z,3.10
2019-04-16T05:26:27.741Z,3.12
2019-04-16T05:28:57.818Z,3.16
2019-04-16T05:31:26.497Z,3.29
2019-04-16T05:33:54.867Z,3.25
2019-04-16T05:36:23.280Z,3.52
2019-04-16T05:38:56.307Z,3.68
2019-04-16T05:41:27.579Z,3.68
2019-04-16T05:43:58.483Z,3.83
2019-04-16T05:46:28.451Z,4.00
2019-04-16T05:48:57.905Z,4.12
2019-04-16T05:51:28.269Z,3.85
2019-04-16T05:54:01.043Z,4.16
2019-04-16T05:56:31.039Z,4.33
2019-04-16T05:58:59.622Z,4.55
2019-04-16T06:01:31.181Z,4.59
2019-04-16T06:03:59.558Z,4.69
2019-04-16T06:06:31.196Z,4.63
2019-04-16T06:08:59.035Z,4.98
2019-04-16T06:11:32.733Z,6.08
2019-04-16T06:14:01.911Z,6.89
2019-04-16T06:16:37.852Z,7.22
2019-04-16T06:19:24.881Z,7.59
2019-04-16T06:22:13.165Z,7.43
2019-04-16T06:24:58.625Z,7.10
2019-04-16T06:27:45.076Z,7.58
2019-04-16T06:30:33.851Z,8.30
2019-04-16T06:33:19.123Z,8.61
2019-04-16T06:36:08.036Z,8.27
2019-04-16T06:38:42.966Z,8.12
2019-04-16T06:41:13.568Z,8.19
2019-04-16T06:43:58.347Z,8.98
2019-04-16T06:46:40.586Z,8.93
2019-04-16T06:49:17.818Z,9.29
2019-04-16T06:52:04.420Z,9.65
2019-04-16T06:54:40.230Z,9.90
2019-04-16T06:57:17.084Z,9.96
2019-04-16T06:59:52.963Z,10.11
2019-04-16T07:02:45.648Z,9.74
2019-04-16T07:05:32.999Z,10.23
2019-04-16T07:08:09.275Z,9.62
2019-04-16T07:10:56.914Z,9.07
2019-04-16T07:13:25.902Z,9.05
2019-04-16T07:15:57.753Z,9.68
2019-04-16T07:18:29.000Z,10.08
2019-04-16T07:20:57.412Z,10.50
2019-04-16T07:23:26.164Z,10.89
2019-04-16T07:25:54.829Z,10.73
2019-04-16T07:28:47.437Z,11.46
2019-04-16T07:31:33.447Z,12.14
2019-04-16T07:33:58.172Z,12.48
2019-04-16T07:36:47.625Z,12.80
2019-04-16T07:39:37.207Z,13.18
2019-04-16T07:42:26.205Z,12.52
2019-04-16T07:45:13.288Z,12.17
2019-04-16T07:47:51.683Z,13.30
2019-04-16T07:50:38.210Z,13.49
2019-04-16T07:53:14.485Z,14.63
2019-04-16T07:55:44.515Z,15.32
2019-04-16T07:58:12.949Z,15.90
2019-04-16T08:00:41.574Z,15.41
2019-04-16T08:03:13.794Z,15.63
2019-04-16T08:05:42.170Z,16.37
2019-04-16T08:08:10.584Z,15.48
2019-04-16T08:10:41.470Z,16.14
2019-04-16T08:13:14.444Z,15.51
2019-04-16T08:15:42.825Z,15.08
2019-04-16T08:18:11.213Z,15.02
2019-04-16T08:20:43.621Z,15.64
2019-04-16T08:23:25.520Z,14.21
2019-04-16T08:26:02.652Z,15.16
2019-04-16T08:28:24.790Z,14.76
2019-04-16T08:30:53.253Z,14.53
2019-04-16T08:33:21.672Z,13.83
2019-04-16T08:35:51.290Z,12.66
2019-04-16T08:38:19.670Z,12.08
2019-04-16T08:40:48.081Z,12.44
2019-04-16T08:43:22.332Z,12.26
2019-04-16T08:45:50.636Z,12.47
2019-04-16T08:48:19.076Z,11.92
2019-04-16T08:50:49.332Z,11.63
2019-04-16T08:53:17.742Z,11.93
2019-04-16T08:55:48.661Z,11.74
2019-04-16T08:58:17.066Z,11.38
2019-04-16T09:00:47.755Z,10.54
2019-04-16T09:03:16.262Z,10.69
2019-04-16T09:05:44.638Z,10.82
2019-04-16T09:08:26.670Z,10.89
2019-04-16T09:10:55.077Z,10.83
2019-04-16T09:13:25.152Z,10.96
2019-04-16T09:15:53.835Z,10.59
2019-04-16T09:18:40.026Z,10.98
2019-04-16T09:21:10.545Z,10.97
2019-04-16T09:23:38.541Z,11.18
2019-04-16T09:26:22.185Z,10.98
2019-04-16T09:28:49.976Z,11.03
2019-04-16T09:31:31.869Z,10.89
2019-04-16T09:34:06.442Z,11.10
2019-04-16T09:36:41.546Z,11.28
2019-04-16T09:39:18.979Z,10.93
2019-04-16T09:41:47.855Z,10.77
2019-04-16T09:44:16.253Z,11.06
2019-04-16T09:46:51.064Z,11.54
2019-04-16T09:49:14.826Z,11.51
2019-04-16T09:51:50.407Z,11.48
2019-04-16T09:54:17.202Z,11.48
2019-04-16T09:56:45.703Z,11.46
2019-04-16T09:59:17.105Z,11.34
2019-04-16T10:01:47.158Z,11.49
2019-04-16T10:04:17.181Z,11.85
2019-04-16T10:06:45.576Z,11.81
2019-04-16T10:09:19.835Z,11.46
2019-04-16T10:11:44.129Z,11.81
2019-04-16T10:14:22.155Z,11.76
2019-04-16T10:16:50.642Z,11.95
2019-04-16T10:19:21.257Z,11.86
2019-04-16T10:21:54.230Z,11.81
2019-04-16T10:24:34.113Z,11.92
2019-04-16T10:27:04.336Z,12.31
2019-04-16T10:29:53.150Z,12.15
2019-04-16T10:32:22.322Z,12.26
2019-04-16T10:35:00.736Z,11.98
2019-04-16T10:37:32.013Z,12.33
2019-04-16T10:43:22.071Z,12.57
2019-04-16T10:45:54.662Z,12.61
2019-04-16T10:51:16.659Z,13.06
2019-04-16T10:57:01.019Z,13.12
2019-04-16T11:00:16.122Z,12.80
2019-04-16T11:06:01.086Z,12.94
2019-04-16T11:09:03.392Z,13.30
2019-04-16T11:11:36.140Z,12.97
2019-04-16T11:14:38.705Z,13.08
2019-04-16T11:17:24.166Z,13.20
2019-04-16T11:20:21.121Z,13.39
2019-04-16T11:23:09.554Z,13.44
2019-04-16T11:35:07.449Z,13.47
2019-04-16T11:38:05.900Z,13.99
2019-04-16T11:50:14.958Z,14.29
2019-04-16T11:52:48.288Z,14.17
2019-04-16T11:56:11.413Z,14.37
2019-04-16T11:58:53.223Z,14.41
2019-04-16T12:05:06.828Z,14.24
2019-04-16T12:13:55.112Z,14.40
2019-04-16T13:25:16.003Z,13.86
2019-04-16T13:27:47.807Z,14.00
2019-04-16T13:30:17.459Z,14.08
2019-04-16T13:32:45.881Z,13.97
2019-04-16T13:35:14.505Z,13.93
2019-04-16T13:37:42.920Z,14.18
2019-04-16T13:40:17.457Z,13.73
2019-04-16T13:42:56.101Z,13.94
2019-04-16T13:45:27.705Z,13.82
2019-04-16T13:47:56.255Z,13.91
2019-04-16T13:50:35.968Z,14.09
2019-04-16T13:53:06.238Z,13.78
2019-04-16T13:55:49.316Z,13.72
2019-04-16T13:58:25.636Z,13.35
2019-04-16T14:01:13.832Z,13.42
2019-04-16T14:03:42.245Z,13.40
2019-04-16T14:06:11.260Z,13.39
2019-04-16T14:08:39.916Z,13.44
2019-04-16T14:11:08.309Z,13.51
2019-04-16T14:13:42.070Z,13.73
2019-04-16T14:16:12.788Z,13.97
2019-04-16T14:18:46.855Z,14.04
2019-04-16T14:21:17.972Z,14.05
2019-04-16T14:23:52.663Z,14.15
2019-04-16T14:26:21.185Z,14.01
2019-04-16T14:28:52.476Z,14.17
2019-04-16T14:31:25.153Z,14.03
2019-04-16T14:34:07.336Z,14.33
2019-04-16T14:36:35.757Z,14.31
2019-04-16T14:39:16.761Z,14.37
2019-04-16T14:41:50.193Z,14.61
2019-04-16T14:44:39.977Z,14.32
2019-04-16T14:47:16.140Z,14.15
2019-04-16T14:49:44.672Z,14.16
2019-04-16T14:52:15.592Z,14.16
2019-04-16T14:55:01.966Z,14.07
2019-04-16T14:57:36.706Z,14.19
2019-04-16T15:00:27.681Z,14.29
2019-04-16T15:02:58.099Z,13.58
2019-04-16T15:05:28.144Z,14.60
2019-04-16T15:07:58.437Z,14.70
2019-04-16T15:10:44.062Z,14.87
2019-04-16T15:13:19.606Z,14.65
2019-04-16T15:16:13.209Z,14.56
2019-04-16T15:18:37.251Z,14.43
2019-04-16T15:21:11.986Z,14.60
2019-04-16T15:23:39.150Z,14.64
2019-04-16T15:26:09.364Z,14.93
2019-04-16T15:28:42.392Z,15.16
2019-04-16T15:31:15.903Z,15.12
2019-04-16T15:33:49.036Z,15.40
2019-04-16T15:36:19.786Z,15.30
2019-04-16T15:38:50.930Z,15.26
2019-04-16T15:41:29.132Z,15.31
2019-04-16T15:44:24.069Z,15.21
2019-04-16T15:47:13.326Z,14.90
2019-04-16T15:49:41.131Z,14.93
2019-04-16T15:52:27.328Z,14.84
2019-04-16T15:55:00.814Z,14.88
2019-04-16T15:57:36.500Z,15.07
2019-04-16T16:00:31.994Z,15.20
2019-04-16T16:03:20.742Z,14.94
2019-04-16T16:05:59.830Z,14.77
2019-04-16T16:08:35.757Z,14.79
2019-04-16T16:11:04.647Z,14.88
2019-04-16T16:13:33.075Z,14.80
2019-04-16T16:16:03.965Z,14.76
2019-04-16T16:18:32.360Z,14.83
2019-04-16T16:21:03.555Z,14.79
2019-04-16T16:23:34.153Z,14.66
2019-04-16T16:26:02.002Z,14.72
2019-04-16T16:28:30.717Z,14.66
2019-04-16T16:31:02.647Z,14.66
2019-04-16T16:33:34.172Z,14.64
2019-04-16T16:36:02.697Z,14.63
2019-04-16T16:38:31.068Z,14.56
2019-04-16T16:40:59.603Z,14.65
2019-04-16T16:43:27.973Z,14.48
2019-04-16T16:46:00.901Z,14.61
2019-04-16T16:48:29.556Z,14.42
2019-04-16T16:50:57.941Z,14.35
2019-04-16T16:53:50.120Z,14.29
2019-04-16T16:56:26.141Z,14.21
2019-04-16T16:58:56.403Z,14.46
2019-04-16T17:01:34.938Z,14.32
2019-04-16T17:04:08.040Z,14.36
2019-04-16T17:06:38.857Z,14.25
2019-04-16T17:09:13.295Z,14.11
2019-04-16T17:11:43.303Z,13.98
2019-04-16T17:14:14.911Z,13.87
2019-04-16T17:16:43.290Z,14.03
2019-04-16T17:19:14.780Z,13.84
2019-04-16T17:21:43.245Z,13.92
2019-04-16T17:24:14.338Z,13.80
2019-04-16T17:26:46.937Z,13.66
2019-04-16T17:29:16.832Z,13.68
2019-04-16T17:31:45.196Z,13.67
2019-04-16T17:34:13.605Z,13.68
2019-04-16T17:36:44.498Z,13.56
2019-04-16T17:39:14.696Z,13.61
2019-04-16T17:42:05.031Z,13.44
2019-04-16T17:44:42.629Z,13.40
2019-04-16T17:47:33.268Z,13.29
2019-04-16T17:50:05.870Z,13.24
2019-04-16T17:52:41.763Z,13.25
2019-04-16T17:55:25.062Z,13.34
2019-04-16T17:57:56.590Z,13.10
2019-04-16T18:00:43.751Z,12.91
2019-04-16T18:03:19.798Z,12.79
2019-04-16T18:05:49.823Z,12.45
2019-04-16T18:08:19.875Z,12.24
2019-04-16T18:10:49.901Z,11.96
2019-04-16T18:13:31.938Z,11.83
2019-04-16T18:16:09.738Z,11.57
2019-04-16T18:18:39.889Z,11.31
2019-04-16T18:21:30.007Z,11.01
2019-04-16T18:24:13.143Z,10.97
2019-04-16T18:26:59.618Z,10.75
2019-04-16T18:29:35.456Z,10.69
2019-04-16T18:32:16.638Z,10.45
2019-04-16T18:34:56.792Z,10.33
2019-04-16T18:37:43.120Z,10.16
2019-04-16T18:40:21.542Z,10.11
2019-04-16T18:43:04.327Z,9.90
2019-04-16T18:45:52.407Z,9.73
2019-04-16T18:48:44.596Z,9.60
2019-04-16T18:51:09.542Z,9.52
2019-04-16T18:53:43.392Z,9.37
2019-04-16T18:56:14.832Z,9.12
2019-04-16T18:58:44.398Z,8.98
2019-04-16T19:01:24.782Z,8.95
2019-04-16T19:03:57.892Z,8.79
2019-04-16T19:06:28.872Z,8.60
2019-04-16T19:08:57.237Z,8.60
2019-04-16T19:11:26.026Z,8.53
2019-04-16T19:16:41.879Z,8.37
2019-04-16T19:19:11.193Z,8.29
2019-04-16T19:21:42.361Z,8.05
2019-04-16T19:24:14.099Z,8.05
2019-04-16T19:26:42.635Z,7.92
2019-04-16T19:29:14.379Z,7.83
2019-04-16T19:31:43.634Z,7.86
2019-04-16T19:34:14.215Z,7.86
2019-04-16T19:36:42.632Z,7.66
2019-04-16T19:39:15.206Z,7.55
2019-04-16T19:41:41.512Z,7.60
2019-04-16T19:44:12.952Z,7.57
2019-04-16T19:46:41.352Z,7.47
2019-04-16T19:49:09.941Z,7.64
2019-04-16T19:51:42.093Z,7.69
2019-04-16T19:54:10.494Z,7.83
2019-04-16T19:56:38.978Z,8.02
2019-04-16T19:59:09.775Z,8.37
2019-04-16T20:01:49.187Z,8.48
2019-04-16T20:04:21.534Z,8.60
2019-04-16T20:06:49.151Z,8.55
2019-04-16T20:09:21.528Z,8.60
2019-04-16T20:11:54.696Z,8.75
2019-04-16T20:14:22.527Z,8.83
2019-04-16T20:16:50.918Z,8.67
2019-04-16T20:19:19.298Z,8.71
2019-04-16T20:21:50.201Z,8.76
2019-04-16T20:24:18.593Z,8.85
2019-04-16T20:26:48.959Z,8.76
2019-04-16T20:29:20.919Z,8.68
2019-04-16T20:31:49.331Z,8.77
2019-04-16T20:34:21.252Z,8.74
2019-04-16T20:36:52.244Z,8.65
2019-04-16T20:39:30.131Z,8.64
2019-04-16T20:42:06.846Z,8.53
2019-04-16T20:44:46.047Z,8.56
2019-04-16T20:47:21.405Z,8.65
2019-04-16T20:49:50.191Z,8.49
2019-04-16T20:55:08.301Z,8.44
2019-04-16T20:57:40.354Z,8.51
2019-04-16T21:00:12.281Z,8.47
2019-04-16T21:02:43.202Z,8.34
2019-04-16T21:05:21.913Z,8.29
2019-04-16T21:07:47.236Z,8.41
2019-04-16T21:10:17.100Z,8.31
2019-04-16T21:12:54.903Z,8.34
2019-04-16T21:15:27.521Z,8.21
2019-04-16T21:17:54.124Z,8.36
2019-04-16T21:20:22.522Z,8.18
2019-04-16T21:22:50.961Z,8.06
2019-04-16T21:25:23.280Z,8.11
2019-04-16T21:27:57.320Z,8.00
2019-04-16T21:30:30.517Z,7.92
2019-04-16T21:33:06.004Z,7.92
2019-04-16T21:35:39.090Z,7.79
2019-04-16T21:38:09.107Z,7.91
2019-04-16T21:40:37.498Z,7.87
2019-04-16T21:43:08.064Z,7.66
2019-04-16T21:45:38.159Z,7.76
2019-04-16T21:48:06.130Z,7.67
2019-04-16T21:50:38.524Z,7.65
2019-04-16T21:53:06.939Z,7.56
2019-04-16T21:55:36.106Z,7.55
2019-04-16T21:58:04.653Z,7.55
2019-04-16T22:00:37.580Z,7.42
2019-04-16T22:03:10.918Z,7.29
2019-04-16T22:05:39.358Z,7.35
2019-04-16T22:08:07.760Z,7.51
2019-04-16T22:10:36.160Z,7.35
2019-04-16T22:13:04.672Z,7.45
2019-04-16T22:15:33.400Z,7.43
2019-04-16T22:18:01.995Z,7.27
2019-04-16T22:20:35.724Z,7.40
2019-04-16T22:23:08.169Z,7.29
2019-04-16T22:28:32.742Z,7.22
2019-04-16T22:31:05.487Z,7.24
2019-04-16T22:34:05.788Z,7.30
2019-04-16T22:36:34.662Z,7.23
2019-04-16T22:39:05.262Z,7.16
2019-04-16T22:41:38.751Z,7.15
2019-04-16T22:44:17.845Z,7.16
2019-04-16T22:46:56.886Z,7.06
2019-04-16T22:49:25.287Z,7.08
2019-04-16T22:51:53.661Z,7.08
2019-04-16T22:54:24.699Z,7.07
2019-04-16T22:56:57.781Z,6.96
2019-04-16T22:59:26.005Z,6.95
2019-04-16T23:01:54.509Z,6.92
2019-04-16T23:04:25.863Z,6.74
2019-04-16T23:06:56.833Z,6.76
2019-04-16T23:09:29.367Z,6.74
2019-04-16T23:11:57.762Z,6.62
2019-04-16T23:14:26.154Z,6.71
2019-04-16T23:16:54.553Z,6.71
2019-04-16T23:19:22.935Z,6.54
2019-04-16T23:21:52.565Z,6.49
2019-04-16T23:24:24.204Z,6.61
2019-04-16T23:26:55.418Z,6.44
2019-04-16T23:29:26.308Z,6.41
2019-04-16T23:31:56.030Z,6.38
2019-04-16T23:34:25.487Z,6.38
2019-04-16T23:36:53.904Z,6.32
2019-04-16T23:39:22.355Z,6.16
2019-04-16T23:41:50.758Z,6.21
2019-04-16T23:44:27.875Z,6.13
2019-04-16T23:47:08.919Z,6.22
2019-04-16T23:49:46.848Z,6.15
2019-04-16T23:52:16.908Z,6.24
2019-04-16T23:55:03.704Z,6.22
2019-04-16T23:57:36.554Z,6.05
